Time;durP1;ratioP1;P1;durP2;ratioP2;P2;SDS_P1;SDS_P2;PMS_P1;PMS_P2;Temp;Humidity;BMP_temperature;BMP_pressure;BME280_temperature;BME280_humidity;BME280_pressure;Samples;Min_cycle;Max_cycle;Signal;HPM_P1;HPM_P2
2021/07/19 00:02:13;;;;;;;6.27;4.37;;;;;;;17.72;100.00;102160.88;5220029;28;20065;-69
2021/07/19 00:04:46;;;;;;;8.73;5.20;;;;;;;17.63;100.00;102158.25;5221811;28;20022;-68
2021/07/19 00:07:17;;;;;;;6.68;4.88;;;;;;;17.77;100.00;102156.97;5221188;28;20471;-68
2021/07/19 00:09:48;;;;;;;7.47;5.07;;;;;;;17.67;100.00;102157.00;5220872;28;20068;-68
2021/07/19 00:12:20;;;;;;;7.63;5.37;;;;;;;17.66;100.00;102153.50;5223979;28;20773;-68
2021/07/19 00:14:51;;;;;;;5.65;4.78;;;;;;;17.66;100.00;102148.22;5219984;28;20080;-68
2021/07/19 00:17:22;;;;;;;7.37;4.57;;;;;;;17.67;100.00;102159.66;5220017;28;20703;-68
2021/07/19 00:19:54;;;;;;;7.45;4.65;;;;;;;17.69;100.00;102158.53;5218892;28;20029;-68
2021/07/19 00:22:25;;;;;;;6.40;5.13;;;;;;;17.57;100.00;102154.34;5236263;28;20033;-68
2021/07/19 00:24:56;;;;;;;9.48;5.70;;;;;;;17.53;100.00;102160.94;5220185;28;20119;-68
2021/07/19 00:27:28;;;;;;;9.20;5.80;;;;;;;17.54;100.00;102157.31;5222215;28;20037;-68
2021/07/19 00:29:59;;;;;;;8.70;5.32;;;;;;;17.45;100.00;102151.03;5222251;28;20415;-68
2021/07/19 00:32:30;;;;;;;8.07;4.77;;;;;;;17.46;100.00;102154.53;5221903;28;20034;-68
2021/07/19 00:35:02;;;;;;;6.95;5.30;;;;;;;17.35;100.00;102152.03;5219024;28;20036;-68
2021/07/19 00:37:35;;;;;;;8.67;5.57;;;;;;;17.34;100.00;102156.50;5222139;28;20065;-68
2021/07/19 00:40:17;;;;;;;6.72;5.13;;;;;;;17.33;100.00;102154.84;5218914;28;20032;-68
2021/07/19 00:42:48;;;;;;;5.95;5.00;;;;;;;17.20;100.00;102162.28;5220079;28;20064;-68
2021/07/19 00:45:24;;;;;;;8.73;5.65;;;;;;;17.22;100.00;102162.94;5217989;28;20478;-68
2021/07/19 00:47:59;;;;;;;7.38;5.78;;;;;;;17.15;100.00;102157.38;5220536;28;20034;-68
2021/07/19 00:50:33;;;;;;;7.70;5.53;;;;;;;17.07;100.00;102149.31;5222325;28;20041;-68
2021/07/19 00:53:07;;;;;;;7.90;4.93;;;;;;;17.02;100.00;102157.66;5224300;28;20025;-68
2021/07/19 00:55:41;;;;;;;10.43;5.65;;;;;;;17.04;100.00;102160.16;5224416;28;20032;-68
2021/07/19 00:58:15;;;;;;;8.10;5.70;;;;;;;17.04;100.00;102154.88;5220976;28;20044;-69
2021/07/19 01:00:52;;;;;;;7.22;5.88;;;;;;;16.96;100.00;102157.38;5225916;28;20025;-68
2021/07/19 01:03:25;;;;;;;7.75;5.15;;;;;;;16.96;100.00;102149.44;5223210;28;20123;-68
2021/07/19 01:05:57;;;;;;;;;;;;;;;17.33;100.00;102156.66;5225252;28;20084;-68
2021/07/19 01:08:29;;;;;;;6.97;5.72;;;;;;;17.02;100.00;102156.84;5221607;28;20020;-68
2021/07/19 01:11:01;;;;;;;7.28;5.88;;;;;;;16.98;100.00;102148.34;5222632;28;20084;-68
2021/07/19 01:13:33;;;;;;;8.35;6.40;;;;;;;16.91;100.00;102154.34;5236681;28;20375;-70
2021/07/19 01:16:04;;;;;;;6.93;6.00;;;;;;;16.86;100.00;102145.97;5222035;28;20402;-69
2021/07/19 01:18:36;;;;;;;6.90;6.20;;;;;;;16.86;100.00;102151.25;5223691;28;20033;-68
2021/07/19 01:21:20;;;;;;;9.52;6.10;;;;;;;16.90;100.00;102153.50;5223656;28;20132;-68
2021/07/19 01:24:28;;;;;;;9.15;6.07;;;;;;;16.92;100.00;102145.41;5230418;28;20155;-68
2021/07/19 01:27:32;;;;;;;7.70;5.60;;;;;;;16.94;100.00;102144.31;5221959;28;20549;-68
2021/07/19 01:30:05;;;;;;;10.48;6.28;;;;;;;16.83;100.00;102147.09;5224357;28;20029;-68
2021/07/19 01:32:41;;;;;;;11.77;6.82;;;;;;;16.80;100.00;102141.25;5222934;28;20036;-68
2021/07/19 01:35:13;;;;;;;8.88;5.97;;;;;;;16.76;100.00;102140.69;5224005;28;20511;-68
2021/07/19 01:37:46;;;;;;;7.65;6.55;;;;;;;16.72;100.00;102140.09;5223194;28;20081;-68
2021/07/19 01:40:18;;;;;;;9.40;6.25;;;;;;;16.72;100.00;102142.72;5239149;28;20075;-68
2021/07/19 01:42:51;;;;;;;7.97;6.30;;;;;;;16.72;100.00;102145.38;5223010;28;20029;-68
2021/07/19 01:45:23;;;;;;;10.05;5.75;;;;;;;16.69;100.00;102145.66;5220492;28;20041;-68
2021/07/19 01:47:55;;;;;;;9.57;6.28;;;;;;;16.79;100.00;102137.75;5218659;28;20057;-68
2021/07/19 01:50:28;;;;;;;14.18;6.95;;;;;;;16.70;100.00;102136.72;5220571;28;20420;-68
2021/07/19 01:53:00;;;;;;;8.95;6.15;;;;;;;16.61;100.00;102132.28;5219122;28;20490;-68
2021/07/19 01:55:32;;;;;;;8.88;6.30;;;;;;;16.80;100.00;102141.25;5222845;28;20021;-68
2021/07/19 01:58:04;;;;;;;11.53;6.37;;;;;;;16.67;100.00;102129.09;5220396;28;20030;-68
2021/07/19 02:00:36;;;;;;;6.47;5.75;;;;;;;16.62;100.00;102138.41;5220355;28;20030;-68
2021/07/19 02:03:07;;;;;;;10.93;6.43;;;;;;;16.54;100.00;102141.72;5221051;28;20573;-68
2021/07/19 02:05:41;;;;;;;9.38;6.70;;;;;;;16.66;100.00;102131.84;5222049;28;20780;-68
2021/07/19 02:08:16;;;;;;;11.68;5.97;;;;;;;16.62;100.00;102139.22;5221319;28;20048;-68
2021/07/19 02:10:50;;;;;;;8.35;6.55;;;;;;;16.49;100.00;102134.22;5221769;28;20047;-68
2021/07/19 02:13:25;;;;;;;9.38;6.00;;;;;;;16.62;100.00;102123.34;5223791;28;20034;-68
2021/07/19 02:15:57;;;;;;;8.32;5.90;;;;;;;16.39;100.00;102128.06;5219637;28;20244;-68
2021/07/19 02:18:32;;;;;;;10.50;6.63;;;;;;;16.41;100.00;102131.44;5223623;28;20076;-68
2021/07/19 02:21:06;;;;;;;6.40;5.72;;;;;;;16.39;100.00;102135.16;5224231;28;20036;-68
2021/07/19 02:23:40;;;;;;;8.68;6.53;;;;;;;16.33;100.00;102133.06;5223484;28;20060;-69
2021/07/19 02:26:13;;;;;;;9.07;6.30;;;;;;;16.20;100.00;102139.44;5222847;28;20487;-68
2021/07/19 02:28:45;;;;;;;10.45;6.38;;;;;;;16.17;100.00;102138.88;5223335;28;20022;-68
2021/07/19 02:31:18;;;;;;;11.20;6.57;;;;;;;16.19;100.00;102148.34;5224084;28;20127;-68
2021/07/19 02:33:50;;;;;;;;;;;;;;;16.49;100.00;102149.25;5221203;28;20113;-68
2021/07/19 02:36:23;;;;;;;8.43;5.90;;;;;;;16.17;100.00;102149.44;5220772;28;19913;-68
2021/07/19 02:38:55;;;;;;;10.05;6.93;;;;;;;15.99;100.00;102144.00;5221372;28;20045;-68
2021/07/19 02:41:28;;;;;;;9.13;6.50;;;;;;;16.01;100.00;102144.69;5220085;28;20480;-68
2021/07/19 02:44:02;;;;;;;7.75;6.57;;;;;;;15.97;100.00;102149.38;5221188;28;20034;-68
2021/07/19 02:46:35;;;;;;;9.95;6.15;;;;;;;15.92;100.00;102156.06;5223666;28;20017;-68
2021/07/19 02:49:10;;;;;;;8.82;6.97;;;;;;;15.88;100.00;102158.13;5222983;28;20030;-68
2021/07/19 02:51:42;;;;;;;10.95;7.22;;;;;;;15.88;100.00;102163.41;5220424;28;20033;-68
2021/07/19 02:54:17;;;;;;;9.07;6.63;;;;;;;15.92;100.00;102166.63;5220754;28;20034;-68
2021/07/19 02:56:49;;;;;;;8.98;6.53;;;;;;;15.76;100.00;102153.91;5223165;28;20340;-68
2021/07/19 02:59:21;;;;;;;10.63;6.47;;;;;;;15.74;100.00;102151.38;5221857;28;20052;-68
2021/07/19 03:01:54;;;;;;;9.73;6.87;;;;;;;15.77;100.00;102159.06;5218265;28;20045;-68
2021/07/19 03:04:27;;;;;;;13.50;6.63;;;;;;;15.76;100.00;102156.56;5221181;28;20430;-68
2021/07/19 03:07:03;;;;;;;9.23;6.13;;;;;;;15.67;100.00;102149.41;5223961;28;20096;-68
2021/07/19 03:09:39;;;;;;;8.32;6.07;;;;;;;15.70;100.00;102160.53;5221405;28;20037;-68
2021/07/19 03:12:12;;;;;;;11.32;6.60;;;;;;;15.68;100.00;102154.56;5221970;28;20030;-68
2021/07/19 03:14:43;;;;;;;7.55;6.25;;;;;;;15.61;100.00;102161.31;5223123;28;20289;-68
2021/07/19 03:17:17;;;;;;;9.93;6.80;;;;;;;15.68;100.00;102151.06;5220940;28;20491;-68
2021/07/19 03:19:53;;;;;;;11.48;6.63;;;;;;;15.59;100.00;102155.31;5219707;28;20025;-68
2021/07/19 03:22:25;;;;;;;12.43;7.63;;;;;;;15.55;100.00;102153.91;5222924;28;20031;-68
2021/07/19 03:24:59;;;;;;;7.35;6.53;;;;;;;15.50;100.00;102153.47;5222713;28;20026;-68
2021/07/19 03:27:31;;;;;;;11.20;6.85;;;;;;;15.46;100.00;102159.97;5223359;28;20026;-68
2021/07/19 03:30:07;;;;;;;8.65;6.40;;;;;;;15.50;100.00;102154.28;5218740;28;20145;-68
2021/07/19 03:32:40;;;;;;;8.18;6.82;;;;;;;15.40;100.00;102144.63;5221121;28;20092;-69
2021/07/19 03:35:11;;;;;;;7.57;6.80;;;;;;;15.41;100.00;102143.66;5221923;28;20045;-68
2021/07/19 03:37:44;;;;;;;11.13;7.07;;;;;;;15.32;100.00;102150.56;5220436;28;20586;-68
2021/07/19 03:40:22;;;;;;;8.65;6.82;;;;;;;15.38;100.00;102142.13;5220401;28;20447;-68
2021/07/19 03:42:57;;;;;;;10.30;6.95;;;;;;;15.30;100.00;102142.78;5221458;28;20481;-68
2021/07/19 03:45:29;;;;;;;8.63;6.90;;;;;;;15.26;100.00;102151.91;5219316;28;20087;-68
2021/07/19 03:48:02;;;;;;;11.15;7.80;;;;;;;15.25;100.00;102144.94;5221817;28;20053;-68
2021/07/19 03:50:35;;;;;;;11.02;7.20;;;;;;;15.32;100.00;102148.75;5221278;28;20040;-68
2021/07/19 03:53:07;;;;;;;18.33;7.95;;;;;;;15.27;100.00;102150.94;5218412;28;20021;-68
2021/07/19 03:55:40;;;;;;;10.40;7.63;;;;;;;15.30;100.00;102157.75;5220988;28;20021;-68
2021/07/19 03:58:12;;;;;;;9.77;7.03;;;;;;;15.21;100.00;102154.09;5219889;28;20502;-68
2021/07/19 04:00:44;;;;;;;12.77;7.03;;;;;;;15.29;100.00;102153.44;5215690;28;20400;-68
2021/07/19 04:03:22;;;;;;;10.73;7.10;;;;;;;15.24;100.00;102150.38;5219899;28;20041;-68
2021/07/19 04:05:59;;;;;;;8.55;6.68;;;;;;;15.25;100.00;102162.59;5218926;28;20022;-68
2021/07/19 04:08:34;;;;;;;9.25;6.90;;;;;;;15.22;100.00;102165.50;5219067;28;20156;-68
2021/07/19 04:11:06;;;;;;;10.45;6.95;;;;;;;15.15;100.00;102162.50;5217955;28;20025;-68
2021/07/19 04:13:38;;;;;;;8.52;6.85;;;;;;;15.20;100.00;102162.16;5220895;28;20041;-68
2021/07/19 04:16:14;;;;;;;8.10;6.63;;;;;;;15.21;100.00;102156.75;5219576;28;20033;-69
2021/07/19 04:18:49;;;;;;;12.18;7.55;;;;;;;15.14;100.00;102163.50;5217606;28;20356;-68
2021/07/19 04:21:21;;;;;;;11.52;7.25;;;;;;;15.12;100.00;102162.78;5220656;28;20038;-68
2021/07/19 04:23:53;;;;;;;10.63;7.25;;;;;;;15.17;100.00;102165.03;5222749;28;20412;-68
2021/07/19 04:26:25;;;;;;;10.75;7.03;;;;;;;15.11;100.00;102170.81;5227030;28;20472;-68
2021/07/19 04:29:00;;;;;;;14.30;8.25;;;;;;;15.22;100.00;102173.41;5223419;28;20025;-69
2021/07/19 04:31:32;;;;;;;11.90;8.07;;;;;;;15.16;100.00;102174.78;5224731;28;20038;-69
2021/07/19 04:34:03;;;;;;;10.57;8.15;;;;;;;15.19;100.00;102179.81;5224055;28;20029;-69
2021/07/19 04:36:34;;;;;;;10.90;7.93;;;;;;;15.25;100.00;102181.91;5223796;28;20026;-69
2021/07/19 04:39:06;;;;;;;9.35;7.43;;;;;;;15.22;100.00;102171.59;5221775;28;20029;-69
2021/07/19 04:41:37;;;;;;;11.82;8.20;;;;;;;15.29;100.00;102179.84;5225084;28;20431;-69
2021/07/19 04:44:08;;;;;;;13.38;9.13;;;;;;;15.33;100.00;102178.63;5224048;28;20057;-69
2021/07/19 04:46:40;;;;;;;12.77;8.20;;;;;;;15.27;100.00;102169.44;5223242;28;20813;-68
2021/07/19 04:49:11;;;;;;;13.43;8.18;;;;;;;15.43;100.00;102182.19;5223936;28;20058;-68
2021/07/19 04:51:45;;;;;;;12.20;8.35;;;;;;;15.54;100.00;102178.63;5225372;28;20542;-69
2021/07/19 04:54:23;;;;;;;11.73;8.20;;;;;;;15.50;100.00;102177.22;5222833;28;20033;-68
2021/07/19 04:56:58;;;;;;;10.75;8.60;;;;;;;15.48;100.00;102177.34;5224096;28;20044;-68
2021/07/19 04:59:32;;;;;;;10.65;9.52;;;;;;;15.53;100.00;102182.22;5224760;28;20561;-68
2021/07/19 05:02:04;;;;;;;9.32;8.20;;;;;;;15.54;100.00;102176.84;5224784;28;20610;-68
2021/07/19 05:04:36;;;;;;;10.97;8.50;;;;;;;15.66;100.00;102179.44;5223418;28;20029;-68
2021/07/19 05:07:10;;;;;;;13.65;9.10;;;;;;;15.69;100.00;102174.72;5224837;28;20300;-68
2021/07/19 05:09:43;;;;;;;11.60;9.02;;;;;;;15.71;100.00;102174.59;5222800;28;20030;-68
2021/07/19 05:12:18;;;;;;;12.77;9.25;;;;;;;15.79;100.00;102177.41;5224179;28;20061;-68
2021/07/19 05:14:50;;;;;;;12.63;9.15;;;;;;;15.78;100.00;102179.22;5223736;28;20029;-68
2021/07/19 05:17:23;;;;;;;11.90;9.57;;;;;;;15.73;100.00;102184.06;5222291;28;20076;-69
2021/07/19 05:19:55;;;;;;;12.60;9.82;;;;;;;15.79;100.00;102177.41;5221817;28;20395;-68
2021/07/19 05:22:26;;;;;;;13.07;9.70;;;;;;;15.82;100.00;102180.63;5225589;28;21165;-68
2021/07/19 05:24:58;;;;;;;15.27;10.15;;;;;;;15.88;100.00;102178.44;5221667;28;20056;-68
2021/07/19 05:27:29;;;;;;;13.25;10.32;;;;;;;15.92;100.00;102170.09;5224432;28;20034;-68
2021/07/19 05:30:00;;;;;;;11.68;9.48;;;;;;;16.02;100.00;102171.00;5222317;28;20150;-68
2021/07/19 05:32:32;;;;;;;11.40;10.02;;;;;;;16.02;100.00;102171.00;5225493;28;20038;-68
2021/07/19 05:35:03;;;;;;;12.95;9.93;;;;;;;16.10;100.00;102175.63;5220133;28;20444;-69
2021/07/19 05:37:35;;;;;;;13.52;11.05;;;;;;;16.12;100.00;102168.38;5222414;28;20057;-68
2021/07/19 05:40:07;;;;;;;14.65;11.45;;;;;;;16.18;100.00;102172.28;5224594;28;20304;-69
2021/07/19 05:42:39;;;;;;;13.02;10.95;;;;;;;16.23;100.00;102181.47;5224571;28;20041;-69
2021/07/19 05:45:12;;;;;;;16.83;13.13;;;;;;;16.28;100.00;102176.63;5224670;28;20053;-68
2021/07/19 05:47:43;;;;;;;17.48;13.23;;;;;;;16.38;100.00;102171.38;5221643;28;20053;-68
2021/07/19 05:50:15;;;;;;;19.88;12.75;;;;;;;16.44;100.00;102180.56;5223380;28;20189;-69
2021/07/19 05:52:46;;;;;;;15.85;12.73;;;;;;;16.54;100.00;102184.06;5219515;28;20034;-69
2021/07/19 05:55:18;;;;;;;17.00;12.88;;;;;;;16.58;100.00;102182.81;5224993;28;20095;-69
2021/07/19 05:57:49;;;;;;;16.92;12.48;;;;;;;16.63;100.00;102182.41;5219546;28;20025;-69
2021/07/19 06:00:20;;;;;;;16.20;12.15;;;;;;;16.70;100.00;102181.72;5217981;28;20021;-69
2021/07/19 06:02:51;;;;;;;16.25;12.05;;;;;;;16.77;100.00;102188.16;5216249;28;20121;-69
2021/07/19 06:05:23;;;;;;;17.35;12.75;;;;;;;16.86;100.00;102175.94;5220322;28;20037;-69
2021/07/19 06:07:55;;;;;;;13.32;11.93;;;;;;;16.92;100.00;102182.47;5218829;28;20025;-69
2021/07/19 06:10:26;;;;;;;16.45;12.38;;;;;;;17.00;100.00;102182.59;5222315;28;20105;-69
2021/07/19 06:12:58;;;;;;;17.17;12.82;;;;;;;17.06;100.00;102191.81;5218837;28;20487;-69
2021/07/19 06:15:29;;;;;;;17.77;13.38;;;;;;;17.16;100.00;102182.03;5220585;28;20044;-69
2021/07/19 06:18:00;;;;;;;17.73;13.30;;;;;;;17.22;100.00;102184.13;5221934;28;20408;-69
2021/07/19 06:20:32;;;;;;;16.58;13.35;;;;;;;17.31;100.00;102185.09;5219334;28;20041;-69
2021/07/19 06:23:03;;;;;;;15.65;13.23;;;;;;;17.38;100.00;102178.25;5222350;28;20025;-69
2021/07/19 06:25:36;;;;;;;16.40;12.85;;;;;;;17.44;100.00;102175.03;5220946;28;20079;-69
2021/07/19 06:28:09;;;;;;;17.33;12.80;;;;;;;17.51;100.00;102184.09;5218701;28;20095;-69
2021/07/19 06:30:40;;;;;;;16.83;12.70;;;;;;;17.64;100.00;102181.97;5218363;28;20087;-69
2021/07/19 06:33:12;;;;;;;16.02;12.98;;;;;;;17.64;100.00;102179.31;5218688;28;20493;-68
2021/07/19 06:35:43;;;;;;;18.75;13.38;;;;;;;17.71;100.00;102185.72;5219268;28;20471;-68
2021/07/19 06:38:14;;;;;;;18.77;13.65;;;;;;;17.75;100.00;102189.78;5206121;28;20049;-68
2021/07/19 06:40:46;;;;;;;13.23;11.73;;;;;;;17.86;100.00;102187.94;5217288;28;20053;-68
2021/07/19 06:43:17;;;;;;;15.77;13.07;;;;;;;17.95;100.00;102192.34;5219242;28;20029;-69
2021/07/19 06:45:48;;;;;;;16.67;12.70;;;;;;;17.98;98.24;102189.41;5218449;28;20053;-68
2021/07/19 06:48:20;;;;;;;14.50;10.87;;;;;;;18.04;97.26;102196.81;5220904;28;20267;-68
2021/07/19 06:50:51;;;;;;;13.50;10.97;;;;;;;18.09;95.10;102199.00;5216354;28;20594;-69
2021/07/19 06:53:23;;;;;;;11.57;9.53;;;;;;;18.12;96.12;102194.25;5220881;28;20096;-68
2021/07/19 06:55:55;;;;;;;10.93;9.73;;;;;;;18.27;96.68;102197.25;5219762;28;20318;-68
2021/07/19 06:58:26;;;;;;;13.27;10.03;;;;;;;18.27;95.77;102197.25;5219061;28;20014;-69
2021/07/19 07:00:57;;;;;;;13.07;9.73;;;;;;;18.35;95.25;102200.00;5221514;28;20116;-68
2021/07/19 07:03:28;;;;;;;10.47;9.37;;;;;;;18.34;94.21;102187.72;5221862;28;20053;-68
2021/07/19 07:06:00;;;;;;;11.80;9.23;;;;;;;18.52;94.31;102194.88;5221589;28;20043;-68
2021/07/19 07:08:31;;;;;;;12.47;10.77;;;;;;;18.59;93.28;102206.56;5217207;28;20346;-69
2021/07/19 07:11:02;;;;;;;11.77;9.00;;;;;;;18.68;93.16;102205.69;5218462;28;20029;-68
2021/07/19 07:13:34;;;;;;;13.47;9.93;;;;;;;18.80;92.53;102198.34;5218380;28;20037;-68
2021/07/19 07:16:05;;;;;;;10.33;8.77;;;;;;;18.88;91.56;102206.41;5221191;28;20042;-69
2021/07/19 07:18:36;;;;;;;14.63;8.97;;;;;;;18.90;90.30;102207.06;5217622;28;20033;-69
2021/07/19 07:21:07;;;;;;;12.33;9.37;;;;;;;18.98;90.11;102206.31;5221118;28;20061;-69
2021/07/19 07:23:39;;;;;;;13.30;9.70;;;;;;;19.04;89.53;102201.22;5218835;28;20033;-69
2021/07/19 07:26:10;;;;;;;10.60;9.13;;;;;;;19.17;88.61;102208.81;5219614;28;20044;-69
2021/07/19 07:28:42;;;;;;;11.27;9.30;;;;;;;19.25;88.31;102211.53;5220660;28;20096;-69
2021/07/19 07:31:13;;;;;;;13.47;9.50;;;;;;;19.27;86.98;102208.72;5220342;28;20440;-69
2021/07/19 07:33:45;;;;;;;9.93;8.53;;;;;;;19.32;86.76;102198.44;5221627;28;20037;-69
2021/07/19 07:36:16;;;;;;;12.27;9.03;;;;;;;19.54;85.66;102202.44;5220967;28;20116;-69
2021/07/19 07:38:48;;;;;;;13.77;9.83;;;;;;;19.49;83.29;102204.75;5219668;28;20050;-69
2021/07/19 07:41:20;;;;;;;9.80;8.30;;;;;;;19.47;85.34;102212.84;5220998;28;20044;-69
2021/07/19 07:43:51;;;;;;;13.53;9.37;;;;;;;19.62;84.74;102202.53;5221947;28;20033;-69
2021/07/19 07:46:23;;;;;;;13.90;9.30;;;;;;;19.62;85.28;102206.03;5217944;28;20785;-69
2021/07/19 07:48:54;;;;;;;11.70;9.70;;;;;;;19.69;83.38;102196.41;5219552;28;20532;-72
2021/07/19 07:51:26;;;;;;;11.20;9.00;;;;;;;19.69;83.96;102201.75;5218127;28;20641;-70
2021/07/19 07:53:58;;;;;;;10.93;8.73;;;;;;;19.63;84.96;102202.38;5218127;28;20484;-70
2021/07/19 07:56:30;;;;;;;9.98;7.65;;;;;;;19.62;81.98;102198.06;5218623;28;20044;-69
2021/07/19 07:59:01;;;;;;;10.00;8.90;;;;;;;19.64;84.03;102208.53;5225834;28;20030;-69
2021/07/19 08:01:32;;;;;;;11.80;9.60;;;;;;;19.71;84.69;102204.25;5222679;28;20376;-69
2021/07/19 08:04:04;;;;;;;12.77;9.10;;;;;;;19.79;82.82;102206.97;5224887;28;20472;-69
2021/07/19 08:06:35;;;;;;;12.17;9.10;;;;;;;19.88;83.47;102203.34;5220562;28;20346;-69
2021/07/19 08:09:06;;;;;;;13.17;9.37;;;;;;;20.09;82.65;102196.81;5224827;28;20044;-69
2021/07/19 08:11:38;;;;;;;12.77;9.03;;;;;;;20.27;81.91;102194.06;5218873;28;20032;-69
2021/07/19 08:14:09;;;;;;;11.53;8.97;;;;;;;20.51;80.50;102191.50;5225369;28;20086;-69
2021/07/19 08:16:41;;;;;;;10.87;8.50;;;;;;;20.65;79.89;102190.03;5221342;28;20029;-69
2021/07/19 08:19:12;;;;;;;13.20;9.00;;;;;;;20.67;79.80;102192.53;5221101;28;20029;-69
2021/07/19 08:21:44;;;;;;;12.03;9.03;;;;;;;20.83;80.78;102182.72;5222698;28;20042;-69
2021/07/19 08:24:15;;;;;;;11.40;8.53;;;;;;;21.16;80.11;102190.72;5222438;28;20018;-69
2021/07/19 08:26:47;;;;;;;10.90;9.03;;;;;;;21.04;79.27;102186.72;5218853;28;20116;-69
2021/07/19 08:29:18;;;;;;;11.60;8.60;;;;;;;20.99;77.99;102205.06;5223157;28;20037;-69
2021/07/19 08:31:49;;;;;;;10.13;8.00;;;;;;;20.81;76.96;102199.88;5225605;28;20025;-69
2021/07/19 08:34:21;;;;;;;10.23;7.80;;;;;;;20.74;77.80;102201.53;5222512;28;20022;-69
2021/07/19 08:36:53;;;;;;;11.18;9.02;;;;;;;20.60;78.78;102203.81;5221988;28;20065;-69
2021/07/19 08:39:24;;;;;;;10.43;8.47;;;;;;;20.67;78.50;102201.34;5223917;28;20038;-69
2021/07/19 08:41:56;;;;;;;12.20;9.23;;;;;;;20.68;80.38;102178.19;5226430;28;20414;-69
2021/07/19 08:44:28;;;;;;;12.87;9.33;;;;;;;20.77;79.89;102190.56;5224009;28;20024;-69
2021/07/19 08:46:59;;;;;;;11.33;9.10;;;;;;;20.73;77.78;102186.56;5222890;28;20292;-69
2021/07/19 08:49:32;;;;;;;10.27;8.20;;;;;;;20.79;80.47;102191.19;5222665;28;20487;-69
2021/07/19 08:52:05;;;;;;;10.68;7.90;;;;;;;20.77;79.86;102191.38;5224924;28;20025;-69
2021/07/19 08:54:37;;;;;;;9.32;8.27;;;;;;;20.77;81.05;102186.06;5212025;28;20029;-69
2021/07/19 08:57:10;;;;;;;11.98;8.98;;;;;;;20.78;79.65;102193.03;5224885;28;20105;-69
2021/07/19 08:59:44;;;;;;;11.40;9.02;;;;;;;20.84;80.28;102191.56;5224017;28;20079;-69
2021/07/19 09:02:15;;;;;;;11.15;9.02;;;;;;;21.02;80.13;102181.56;5223158;28;20064;-69
2021/07/19 09:04:46;;;;;;;11.67;8.73;;;;;;;21.02;78.86;102186.06;5224221;28;20538;-69
2021/07/19 09:07:18;;;;;;;10.30;8.23;;;;;;;21.03;77.07;102183.25;5222250;28;20073;-69
2021/07/19 09:09:50;;;;;;;11.57;9.27;;;;;;;20.99;76.45;102189.91;5220002;28;20053;-69
2021/07/19 09:12:38;;;;;;;10.63;8.88;;;;;;;21.29;78.08;102191.06;5220245;28;20120;-69
2021/07/19 09:15:12;;;;;;;11.02;8.45;;;;;;;21.52;78.03;102190.41;5222199;28;20424;-69
2021/07/19 09:17:43;;;;;;;10.50;8.82;;;;;;;21.44;76.30;102182.41;5219889;28;20022;-69
2021/07/19 09:20:26;;;;;;;9.60;8.60;;;;;;;21.37;77.87;102179.59;5220098;28;20022;-69
2021/07/19 09:22:58;;;;;;;10.60;9.00;;;;;;;21.39;78.71;102177.56;5219744;28;20452;-69
2021/07/19 09:25:30;;;;;;;11.63;9.30;;;;;;;21.74;76.66;102189.66;5219181;28;20341;-69
2021/07/19 09:28:05;;;;;;;11.17;9.87;;;;;;;21.81;75.95;102184.47;5224008;28;20036;-69
2021/07/19 09:30:38;;;;;;;13.00;9.73;;;;;;;21.70;75.93;102177.66;5221338;28;20033;-67
2021/07/19 09:33:15;;;;;;;11.05;8.95;;;;;;;21.93;76.18;102166.25;5222556;28;20033;-68
2021/07/19 09:35:49;;;;;;;9.77;8.70;;;;;;;22.04;74.97;102171.22;5220207;28;20124;-67
2021/07/19 09:38:21;;;;;;;13.80;9.90;;;;;;;22.03;73.12;102169.56;5218999;28;20038;-68
2021/07/19 09:41:00;;;;;;;11.03;9.43;;;;;;;22.27;74.40;102163.28;5223639;28;20385;-68
2021/07/19 09:43:32;;;;;;;12.68;10.15;;;;;;;22.38;73.23;102162.91;5221087;28;20919;-68
2021/07/19 09:46:07;;;;;;;11.07;9.93;;;;;;;22.46;72.27;102168.19;5220764;28;20026;-68
2021/07/19 09:48:38;;;;;;;12.02;10.27;;;;;;;22.29;70.56;102169.31;5224047;28;20124;-68
2021/07/19 09:51:09;;;;;;;12.20;8.83;;;;;;;22.40;71.76;102163.56;5224307;28;20032;-68
2021/07/19 09:53:43;;;;;;;12.93;10.37;;;;;;;22.24;71.43;102166.34;5222579;28;20033;-68
2021/07/19 09:56:21;;;;;;;11.30;9.13;;;;;;;22.38;73.62;102165.56;5219523;28;20116;-69
2021/07/19 09:59:05;;;;;;;12.38;9.52;;;;;;;22.42;74.07;102169.56;5221359;28;20395;-69
2021/07/19 10:01:43;;;;;;;12.38;10.30;;;;;;;22.33;70.13;102163.44;5221017;28;20037;-69
2021/07/19 10:04:18;;;;;;;11.02;8.82;;;;;;;22.93;71.87;102164.56;5217750;28;20483;-69
2021/07/19 10:06:54;;;;;;;12.05;9.10;;;;;;;23.24;71.74;102151.09;5212452;28;20026;-69
2021/07/19 10:09:25;;;;;;;11.73;9.95;;;;;;;22.98;70.28;102156.00;5206186;28;20101;-70
2021/07/19 10:11:57;;;;;;;10.07;8.97;;;;;;;22.86;74.23;102144.88;5210400;28;20049;-70
2021/07/19 10:14:31;;;;;;;11.20;9.65;;;;;;;22.77;72.32;102149.47;5220266;28;20029;-70
2021/07/19 10:17:05;;;;;;;10.93;9.02;;;;;;;23.00;73.91;102149.47;5218821;28;20108;-70
2021/07/19 10:19:40;;;;;;;11.07;9.85;;;;;;;23.21;70.37;102139.91;5219668;28;20096;-70
2021/07/19 10:22:13;;;;;;;11.80;9.73;;;;;;;23.02;73.05;102147.44;5221143;28;20415;-70
2021/07/19 10:24:45;;;;;;;13.60;10.25;;;;;;;22.78;73.47;102144.94;5221628;28;20025;-70
2021/07/19 10:27:18;;;;;;;14.50;9.13;;;;;;;22.78;71.11;102150.28;5220449;28;20044;-70
2021/07/19 10:29:50;;;;;;;13.57;10.25;;;;;;;22.78;72.17;102151.13;5220272;28;20056;-70
2021/07/19 10:32:23;;;;;;;12.90;10.32;;;;;;;22.76;73.17;102139.75;5222655;28;20022;-70
2021/07/19 10:34:55;;;;;;;14.02;10.25;;;;;;;22.94;72.60;102149.34;5220960;28;20038;-70
2021/07/19 10:37:52;;;;;;;13.48;9.88;;;;;;;23.01;72.84;102151.13;5219664;28;20060;-70
2021/07/19 10:40:29;;;;;;;13.95;9.82;;;;;;;23.06;73.61;102151.41;5221973;28;20515;-70
2021/07/19 10:43:07;;;;;;;11.55;10.05;;;;;;;23.00;73.28;102144.13;5222843;28;20037;-70
2021/07/19 10:45:48;;;;;;;12.38;9.80;;;;;;;23.13;73.57;102148.84;5219551;28;20040;-70
2021/07/19 10:48:32;;;;;;;11.93;9.93;;;;;;;23.37;73.63;102146.94;5219299;28;20033;-71
2021/07/19 10:51:18;;;;;;;13.20;10.57;;;;;;;23.46;71.00;102145.84;5222478;28;20068;-70
2021/07/19 10:53:52;;;;;;;11.20;9.93;;;;;;;23.35;69.36;102136.44;5220333;28;20030;-70
2021/07/19 10:56:28;;;;;;;11.27;10.02;;;;;;;23.48;70.70;102139.28;5219778;28;20048;-71
2021/07/19 10:59:00;;;;;;;13.15;9.85;;;;;;;23.41;69.13;102141.06;5221763;28;20084;-70
2021/07/19 11:01:33;;;;;;;11.57;9.70;;;;;;;23.44;65.82;102135.31;5220349;28;20022;-70
2021/07/19 11:04:17;;;;;;;10.50;9.30;;;;;;;23.68;69.46;102130.75;5219245;28;20067;-70
2021/07/19 11:06:58;;;;;;;11.93;9.63;;;;;;;23.84;68.97;102138.59;5221357;28;20116;-70
2021/07/19 11:09:38;;;;;;;11.63;10.05;;;;;;;24.19;70.19;102130.75;5220754;28;20034;-70
2021/07/19 11:12:16;;;;;;;13.90;10.23;;;;;;;24.17;69.09;102132.78;5216750;28;20030;-70
2021/07/19 11:14:50;;;;;;;12.18;10.23;;;;;;;24.33;66.88;102124.53;5220040;28;20032;-70
2021/07/19 11:17:27;;;;;;;14.88;11.02;;;;;;;24.04;67.55;102114.72;5219153;28;20519;-70
2021/07/19 11:20:12;;;;;;;14.15;11.75;;;;;;;24.17;66.91;102116.72;5217565;28;20026;-70
2021/07/19 11:22:45;;;;;;;12.93;10.73;;;;;;;24.09;68.29;102117.66;5216305;28;20046;-70
2021/07/19 11:25:17;;;;;;;12.60;9.98;;;;;;;24.07;66.57;102114.38;5215553;28;20395;-70
2021/07/19 11:27:49;;;;;;;10.55;9.40;;;;;;;24.15;65.08;102119.59;5217265;28;20036;-70
2021/07/19 11:30:22;;;;;;;11.87;10.27;;;;;;;24.38;66.39;102122.09;5217918;28;20034;-70
2021/07/19 11:32:54;;;;;;;13.15;10.27;;;;;;;24.75;64.98;102113.00;5213301;28;20034;-70
2021/07/19 11:35:25;;;;;;;11.90;9.40;;;;;;;24.85;65.84;102119.88;5216728;28;20026;-70
2021/07/19 11:37:59;;;;;;;10.33;8.97;;;;;;;24.86;65.53;102122.38;5221855;28;20046;-70
2021/07/19 11:40:42;;;;;;;10.85;9.60;;;;;;;24.74;64.46;102121.25;5218301;28;20032;-70
2021/07/19 11:43:19;;;;;;;11.70;8.80;;;;;;;24.88;63.37;102112.28;5218120;28;20542;-70